sensor_id;sensor_type;location;lat;lon;timestamp;temperature;humidity
3466;DHT22;1747;48.884;9.160;2022-12-24T00:01:44;13.20;99.90
3466;DHT22;1747;48.884;9.160;2022-12-24T00:04:11;13.20;99.90
3466;DHT22;1747;48.884;9.160;2022-12-24T00:06:37;13.20;99.90
3466;DHT22;1747;48.884;9.160;2022-12-24T00:09:04;13.20;99.90
3466;DHT22;1747;48.884;9.160;2022-12-24T00:11:31;13.20;99.90
3466;DHT22;1747;48.884;9.160;2022-12-24T00:13:58;13.20;99.90
3466;DHT22;1747;48.884;9.160;2022-12-24T00:16:24;13.10;99.90
3466;DHT22;1747;48.884;9.160;2022-12-24T00:18:53;13.20;99.90
3466;DHT22;1747;48.884;9.160;2022-12-24T00:21:19;13.20;99.90
3466;DHT22;1747;48.884;9.160;2022-12-24T00:23:46;13.20;99.90
3466;DHT22;1747;48.884;9.160;2022-12-24T00:26:13;13.10;99.90
3466;DHT22;1747;48.884;9.160;2022-12-24T00:28:40;13.10;99.90
3466;DHT22;1747;48.884;9.160;2022-12-24T00:31:09;13.10;99.90
3466;DHT22;1747;48.884;9.160;2022-12-24T00:33:36;13.00;99.90
3466;DHT22;1747;48.884;9.160;2022-12-24T00:36:06;13.10;99.90
3466;DHT22;1747;48.884;9.160;2022-12-24T00:38:33;13.00;99.90
3466;DHT22;1747;48.884;9.160;2022-12-24T00:41:00;13.00;99.90
3466;DHT22;1747;48.884;9.160;2022-12-24T00:43:27;12.90;99.90
3466;DHT22;1747;48.884;9.160;2022-12-24T00:45:54;12.90;99.90
3466;DHT22;1747;48.884;9.160;2022-12-24T00:48:21;13.00;99.90
3466;DHT22;1747;48.884;9.160;2022-12-24T00:50:48;13.10;99.90
3466;DHT22;1747;48.884;9.160;2022-12-24T00:53:16;13.10;99.90
3466;DHT22;1747;48.884;9.160;2022-12-24T00:55:43;13.10;99.90
3466;DHT22;1747;48.884;9.160;2022-12-24T00:58:10;13.20;99.90
3466;DHT22;1747;48.884;9.160;2022-12-24T01:00:37;13.30;99.90
3466;DHT22;1747;48.884;9.160;2022-12-24T01:03:04;13.30;99.90
3466;DHT22;1747;48.884;9.160;2022-12-24T01:05:30;13.30;99.90
3466;DHT22;1747;48.884;9.160;2022-12-24T01:07:56;13.20;99.90
3466;DHT22;1747;48.884;9.160;2022-12-24T01:10:24;13.20;99.90
3466;DHT22;1747;48.884;9.160;2022-12-24T01:12:51;13.00;99.90
3466;DHT22;1747;48.884;9.160;2022-12-24T01:15:18;13.00;99.90
3466;DHT22;1747;48.884;9.160;2022-12-24T01:17:45;13.20;99.90
3466;DHT22;1747;48.884;9.160;2022-12-24T01:20:14;13.20;99.90
3466;DHT22;1747;48.884;9.160;2022-12-24T01:22:40;13.10;99.90
3466;DHT22;1747;48.884;9.160;2022-12-24T01:25:08;13.00;99.90
3466;DHT22;1747;48.884;9.160;2022-12-24T01:27:37;12.90;99.90
3466;DHT22;1747;48.884;9.160;2022-12-24T01:30:04;12.80;99.90
3466;DHT22;1747;48.884;9.160;2022-12-24T01:32:31;12.70;99.90
3466;DHT22;1747;48.884;9.160;2022-12-24T01:34:58;12.70;99.90
3466;DHT22;1747;48.884;9.160;2022-12-24T01:37:25;12.60;99.90
3466;DHT22;1747;48.884;9.160;2022-12-24T01:39:52;12.50;99.90
3466;DHT22;1747;48.884;9.160;2022-12-24T01:42:46;12.50;99.90
3466;DHT22;1747;48.884;9.160;2022-12-24T01:45:46;12.30;99.90
3466;DHT22;1747;48.884;9.160;2022-12-24T01:48:24;12.20;99.90
3466;DHT22;1747;48.884;9.160;2022-12-24T01:50:57;12.10;99.90
3466;DHT22;1747;48.884;9.160;2022-12-24T01:53:26;12.10;99.90
3466;DHT22;1747;48.884;9.160;2022-12-24T01:55:54;12.00;99.90
3466;DHT22;1747;48.884;9.160;2022-12-24T01:58:23;12.00;99.90
3466;DHT22;1747;48.884;9.160;2022-12-24T02:00:51;12.00;99.90
3466;DHT22;1747;48.884;9.160;2022-12-24T02:03:18;12.00;99.90
3466;DHT22;1747;48.884;9.160;2022-12-24T02:05:47;11.90;99.90
3466;DHT22;1747;48.884;9.160;2022-12-24T02:08:15;11.90;99.90
3466;DHT22;1747;48.884;9.160;2022-12-24T02:10:42;11.90;99.90
3466;DHT22;1747;48.884;9.160;2022-12-24T02:13:09;11.80;99.90
3466;DHT22;1747;48.884;9.160;2022-12-24T02:15:55;11.80;99.90
3466;DHT22;1747;48.884;9.160;2022-12-24T02:18:29;11.80;99.90
3466;DHT22;1747;48.884;9.160;2022-12-24T02:24:27;11.80;99.90
3466;DHT22;1747;48.884;9.160;2022-12-24T02:27:20;11.80;99.90
3466;DHT22;1747;48.884;9.160;2022-12-24T02:30:07;11.80;99.90
3466;DHT22;1747;48.884;9.160;2022-12-24T02:32:53;11.80;99.90
3466;DHT22;1747;48.884;9.160;2022-12-24T02:35:29;11.90;99.90
3466;DHT22;1747;48.884;9.160;2022-12-24T02:37:59;11.90;99.90
3466;DHT22;1747;48.884;9.160;2022-12-24T02:40:30;11.90;99.90
3466;DHT22;1747;48.884;9.160;2022-12-24T02:43:03;11.90;99.90
3466;DHT22;1747;48.884;9.160;2022-12-24T02:45:33;11.90;99.90
3466;DHT22;1747;48.884;9.160;2022-12-24T02:48:01;11.90;99.90
3466;DHT22;1747;48.884;9.160;2022-12-24T02:50:28;11.90;99.90
3466;DHT22;1747;48.884;9.160;2022-12-24T02:52:55;11.90;99.90
3466;DHT22;1747;48.884;9.160;2022-12-24T02:55:25;11.90;99.90
3466;DHT22;1747;48.884;9.160;2022-12-24T02:58:13;11.90;99.90
3466;DHT22;1747;48.884;9.160;2022-12-24T03:00:51;11.80;99.90
3466;DHT22;1747;48.884;9.160;2022-12-24T03:03:32;11.70;99.90
3466;DHT22;1747;48.884;9.160;2022-12-24T03:06:06;11.60;99.90
3466;DHT22;1747;48.884;9.160;2022-12-24T03:08:43;11.70;99.90
3466;DHT22;1747;48.884;9.160;2022-12-24T03:11:12;11.60;99.90
3466;DHT22;1747;48.884;9.160;2022-12-24T03:13:40;11.70;99.90
3466;DHT22;1747;48.884;9.160;2022-12-24T03:16:11;11.90;99.90
3466;DHT22;1747;48.884;9.160;2022-12-24T03:18:42;11.90;99.90
3466;DHT22;1747;48.884;9.160;2022-12-24T03:21:12;11.90;99.90
3466;DHT22;1747;48.884;9.160;2022-12-24T03:23:40;12.00;99.90
3466;DHT22;1747;48.884;9.160;2022-12-24T03:26:10;11.90;99.90
3466;DHT22;1747;48.884;9.160;2022-12-24T03:28:39;11.90;99.90
3466;DHT22;1747;48.884;9.160;2022-12-24T03:31:06;11.80;99.90
3466;DHT22;1747;48.884;9.160;2022-12-24T03:33:35;11.80;99.90
3466;DHT22;1747;48.884;9.160;2022-12-24T03:36:02;11.90;99.90
3466;DHT22;1747;48.884;9.160;2022-12-24T03:38:29;11.80;99.90
3466;DHT22;1747;48.884;9.160;2022-12-24T03:40:56;11.80;99.90
3466;DHT22;1747;48.884;9.160;2022-12-24T03:43:23;11.80;99.90
3466;DHT22;1747;48.884;9.160;2022-12-24T03:45:50;11.90;99.90
3466;DHT22;1747;48.884;9.160;2022-12-24T03:48:16;11.90;99.90
3466;DHT22;1747;48.884;9.160;2022-12-24T03:50:45;11.90;99.90
3466;DHT22;1747;48.884;9.160;2022-12-24T03:53:11;11.90;99.90
3466;DHT22;1747;48.884;9.160;2022-12-24T03:55:38;11.80;99.90
3466;DHT22;1747;48.884;9.160;2022-12-24T03:58:05;11.70;99.90
3466;DHT22;1747;48.884;9.160;2022-12-24T04:00:32;11.70;99.90
3466;DHT22;1747;48.884;9.160;2022-12-24T04:02:59;11.70;99.90
3466;DHT22;1747;48.884;9.160;2022-12-24T04:05:26;11.80;99.90
3466;DHT22;1747;48.884;9.160;2022-12-24T04:07:54;11.80;99.90
3466;DHT22;1747;48.884;9.160;2022-12-24T04:10:21;11.80;99.90
3466;DHT22;1747;48.884;9.160;2022-12-24T04:12:47;11.70;99.90
3466;DHT22;1747;48.884;9.160;2022-12-24T04:15:14;11.70;99.90
3466;DHT22;1747;48.884;9.160;2022-12-24T04:17:41;11.60;99.90
3466;DHT22;1747;48.884;9.160;2022-12-24T04:20:08;11.50;99.90
3466;DHT22;1747;48.884;9.160;2022-12-24T04:22:35;11.30;99.90
3466;DHT22;1747;48.884;9.160;2022-12-24T04:25:04;11.30;99.90
3466;DHT22;1747;48.884;9.160;2022-12-24T04:27:31;11.40;99.90
3466;DHT22;1747;48.884;9.160;2022-12-24T04:29:58;11.40;99.90
3466;DHT22;1747;48.884;9.160;2022-12-24T04:32:25;11.40;99.90
3466;DHT22;1747;48.884;9.160;2022-12-24T04:34:51;11.40;99.90
3466;DHT22;1747;48.884;9.160;2022-12-24T04:37:18;11.30;99.90
3466;DHT22;1747;48.884;9.160;2022-12-24T04:39:45;11.20;99.90
3466;DHT22;1747;48.884;9.160;2022-12-24T04:42:13;11.20;99.90
3466;DHT22;1747;48.884;9.160;2022-12-24T04:44:40;11.10;99.90
3466;DHT22;1747;48.884;9.160;2022-12-24T04:47:07;11.10;99.90
3466;DHT22;1747;48.884;9.160;2022-12-24T04:49:35;11.10;99.90
3466;DHT22;1747;48.884;9.160;2022-12-24T04:52:01;11.10;99.90
3466;DHT22;1747;48.884;9.160;2022-12-24T04:54:28;11.10;99.90
3466;DHT22;1747;48.884;9.160;2022-12-24T04:56:55;11.00;99.90
3466;DHT22;1747;48.884;9.160;2022-12-24T04:59:23;11.00;99.90
3466;DHT22;1747;48.884;9.160;2022-12-24T05:01:50;11.00;99.90
3466;DHT22;1747;48.884;9.160;2022-12-24T05:04:17;11.00;99.90
3466;DHT22;1747;48.884;9.160;2022-12-24T05:06:43;11.20;99.90
3466;DHT22;1747;48.884;9.160;2022-12-24T05:09:10;11.00;99.90
3466;DHT22;1747;48.884;9.160;2022-12-24T05:11:37;11.10;99.90
3466;DHT22;1747;48.884;9.160;2022-12-24T05:14:04;11.10;99.90
3466;DHT22;1747;48.884;9.160;2022-12-24T05:16:32;11.20;99.90
3466;DHT22;1747;48.884;9.160;2022-12-24T05:18:59;11.30;99.90
3466;DHT22;1747;48.884;9.160;2022-12-24T05:21:26;11.20;99.90
3466;DHT22;1747;48.884;9.160;2022-12-24T05:23:53;11.30;99.90
3466;DHT22;1747;48.884;9.160;2022-12-24T05:26:40;11.30;99.90
3466;DHT22;1747;48.884;9.160;2022-12-24T05:29:09;11.30;99.90
3466;DHT22;1747;48.884;9.160;2022-12-24T05:31:39;11.20;99.90
3466;DHT22;1747;48.884;9.160;2022-12-24T05:34:06;11.20;99.90
3466;DHT22;1747;48.884;9.160;2022-12-24T05:36:34;11.10;99.90
3466;DHT22;1747;48.884;9.160;2022-12-24T05:39:01;11.10;99.90
3466;DHT22;1747;48.884;9.160;2022-12-24T05:41:28;11.10;99.90
3466;DHT22;1747;48.884;9.160;2022-12-24T05:43:55;11.00;99.90
3466;DHT22;1747;48.884;9.160;2022-12-24T05:46:23;11.00;99.90
3466;DHT22;1747;48.884;9.160;2022-12-24T05:48:52;11.00;99.90
3466;DHT22;1747;48.884;9.160;2022-12-24T05:51:20;10.90;99.90
3466;DHT22;1747;48.884;9.160;2022-12-24T05:53:48;10.80;99.90
3466;DHT22;1747;48.884;9.160;2022-12-24T05:56:16;10.80;99.90
3466;DHT22;1747;48.884;9.160;2022-12-24T05:58:44;10.80;99.90
3466;DHT22;1747;48.884;9.160;2022-12-24T06:01:11;10.90;99.90
3466;DHT22;1747;48.884;9.160;2022-12-24T06:03:39;10.80;99.90
3466;DHT22;1747;48.884;9.160;2022-12-24T06:06:09;10.80;99.90
3466;DHT22;1747;48.884;9.160;2022-12-24T06:08:38;10.80;99.90
3466;DHT22;1747;48.884;9.160;2022-12-24T06:11:06;10.80;99.90
3466;DHT22;1747;48.884;9.160;2022-12-24T06:13:33;10.80;99.90
3466;DHT22;1747;48.884;9.160;2022-12-24T06:16:02;10.80;99.90
3466;DHT22;1747;48.884;9.160;2022-12-24T06:18:30;10.80;99.90
3466;DHT22;1747;48.884;9.160;2022-12-24T06:20:57;10.70;99.90
3466;DHT22;1747;48.884;9.160;2022-12-24T06:23:28;10.50;99.90
3466;DHT22;1747;48.884;9.160;2022-12-24T06:25:56;10.40;99.90
3466;DHT22;1747;48.884;9.160;2022-12-24T06:28:23;10.40;99.90
3466;DHT22;1747;48.884;9.160;2022-12-24T06:30:50;10.30;99.90
3466;DHT22;1747;48.884;9.160;2022-12-24T06:33:17;10.30;99.90
3466;DHT22;1747;48.884;9.160;2022-12-24T06:35:45;10.20;99.90
3466;DHT22;1747;48.884;9.160;2022-12-24T06:38:12;10.20;99.90
3466;DHT22;1747;48.884;9.160;2022-12-24T06:40:42;10.20;99.90
3466;DHT22;1747;48.884;9.160;2022-12-24T06:43:09;10.10;99.90
3466;DHT22;1747;48.884;9.160;2022-12-24T06:45:36;10.00;99.90
3466;DHT22;1747;48.884;9.160;2022-12-24T06:48:03;10.00;99.90
3466;DHT22;1747;48.884;9.160;2022-12-24T06:50:32;10.00;99.90
3466;DHT22;1747;48.884;9.160;2022-12-24T06:52:59;9.90;99.90
3466;DHT22;1747;48.884;9.160;2022-12-24T06:55:25;9.90;99.90
3466;DHT22;1747;48.884;9.160;2022-12-24T06:57:54;9.90;99.90
3466;DHT22;1747;48.884;9.160;2022-12-24T07:00:20;9.90;99.90
3466;DHT22;1747;48.884;9.160;2022-12-24T07:02:47;9.90;99.90
3466;DHT22;1747;48.884;9.160;2022-12-24T07:05:14;9.90;99.90
3466;DHT22;1747;48.884;9.160;2022-12-24T07:07:43;9.90;99.90
3466;DHT22;1747;48.884;9.160;2022-12-24T07:10:11;10.00;99.90
3466;DHT22;1747;48.884;9.160;2022-12-24T07:12:39;10.10;99.90
3466;DHT22;1747;48.884;9.160;2022-12-24T07:15:08;10.10;99.90
3466;DHT22;1747;48.884;9.160;2022-12-24T07:17:35;10.10;99.90
3466;DHT22;1747;48.884;9.160;2022-12-24T07:20:02;10.00;99.90
3466;DHT22;1747;48.884;9.160;2022-12-24T07:22:29;10.00;99.90
3466;DHT22;1747;48.884;9.160;2022-12-24T07:24:55;10.00;99.90
3466;DHT22;1747;48.884;9.160;2022-12-24T07:27:22;10.00;99.90
3466;DHT22;1747;48.884;9.160;2022-12-24T07:29:49;10.00;99.90
3466;DHT22;1747;48.884;9.160;2022-12-24T07:32:17;10.10;99.90
3466;DHT22;1747;48.884;9.160;2022-12-24T07:34:45;10.20;99.90
3466;DHT22;1747;48.884;9.160;2022-12-24T07:37:11;10.40;99.90
3466;DHT22;1747;48.884;9.160;2022-12-24T07:39:38;10.40;99.90
3466;DHT22;1747;48.884;9.160;2022-12-24T07:42:05;10.40;99.90
3466;DHT22;1747;48.884;9.160;2022-12-24T07:44:33;10.60;99.90
3466;DHT22;1747;48.884;9.160;2022-12-24T07:46:59;10.60;99.90
3466;DHT22;1747;48.884;9.160;2022-12-24T07:49:28;10.70;99.90
3466;DHT22;1747;48.884;9.160;2022-12-24T07:51:55;10.80;99.90
3466;DHT22;1747;48.884;9.160;2022-12-24T07:54:22;10.80;99.90
3466;DHT22;1747;48.884;9.160;2022-12-24T07:56:48;10.80;99.90
3466;DHT22;1747;48.884;9.160;2022-12-24T07:59:15;10.70;99.90
3466;DHT22;1747;48.884;9.160;2022-12-24T08:01:42;10.60;99.90
3466;DHT22;1747;48.884;9.160;2022-12-24T08:04:09;10.60;99.90
3466;DHT22;1747;48.884;9.160;2022-12-24T08:06:38;10.70;99.90
3466;DHT22;1747;48.884;9.160;2022-12-24T08:09:04;10.70;99.90
3466;DHT22;1747;48.884;9.160;2022-12-24T08:11:31;10.70;99.90
3466;DHT22;1747;48.884;9.160;2022-12-24T08:13:58;10.60;99.90
3466;DHT22;1747;48.884;9.160;2022-12-24T08:16:25;10.70;99.90
3466;DHT22;1747;48.884;9.160;2022-12-24T08:18:52;10.70;99.90
3466;DHT22;1747;48.884;9.160;2022-12-24T08:21:19;10.80;99.90
3466;DHT22;1747;48.884;9.160;2022-12-24T08:23:47;10.80;99.90
3466;DHT22;1747;48.884;9.160;2022-12-24T08:26:13;10.80;99.90
3466;DHT22;1747;48.884;9.160;2022-12-24T08:28:40;10.80;99.90
3466;DHT22;1747;48.884;9.160;2022-12-24T08:31:07;10.70;99.90
3466;DHT22;1747;48.884;9.160;2022-12-24T08:33:34;10.60;99.90
3466;DHT22;1747;48.884;9.160;2022-12-24T08:36:01;10.70;99.90
3466;DHT22;1747;48.884;9.160;2022-12-24T08:38:28;10.70;99.90
3466;DHT22;1747;48.884;9.160;2022-12-24T08:40:56;10.70;99.90
3466;DHT22;1747;48.884;9.160;2022-12-24T08:43:23;10.70;99.90
3466;DHT22;1747;48.884;9.160;2022-12-24T08:45:51;10.80;99.90
3466;DHT22;1747;48.884;9.160;2022-12-24T08:48:18;10.80;99.90
3466;DHT22;1747;48.884;9.160;2022-12-24T08:50:45;10.80;99.90
3466;DHT22;1747;48.884;9.160;2022-12-24T08:53:12;10.80;99.90
3466;DHT22;1747;48.884;9.160;2022-12-24T08:55:39;10.70;99.90
3466;DHT22;1747;48.884;9.160;2022-12-24T08:58:07;10.70;99.90
3466;DHT22;1747;48.884;9.160;2022-12-24T09:00:34;10.50;99.90
3466;DHT22;1747;48.884;9.160;2022-12-24T09:03:00;10.50;99.90
3466;DHT22;1747;48.884;9.160;2022-12-24T09:05:27;10.50;99.90
3466;DHT22;1747;48.884;9.160;2022-12-24T09:07:54;10.60;99.90
3466;DHT22;1747;48.884;9.160;2022-12-24T09:10:21;10.70;99.90
3466;DHT22;1747;48.884;9.160;2022-12-24T09:12:48;10.60;99.90
3466;DHT22;1747;48.884;9.160;2022-12-24T09:15:17;10.60;99.90
3466;DHT22;1747;48.884;9.160;2022-12-24T09:17:44;10.60;99.90
3466;DHT22;1747;48.884;9.160;2022-12-24T09:20:11;10.80;99.90
3466;DHT22;1747;48.884;9.160;2022-12-24T09:22:38;10.80;99.90
3466;DHT22;1747;48.884;9.160;2022-12-24T09:25:06;10.90;99.90
3466;DHT22;1747;48.884;9.160;2022-12-24T09:27:33;11.00;99.90
3466;DHT22;1747;48.884;9.160;2022-12-24T09:30:00;11.10;99.90
3466;DHT22;1747;48.884;9.160;2022-12-24T09:32:28;11.30;99.90
3466;DHT22;1747;48.884;9.160;2022-12-24T09:34:55;11.60;99.90
3466;DHT22;1747;48.884;9.160;2022-12-24T09:37:22;11.70;99.90
3466;DHT22;1747;48.884;9.160;2022-12-24T09:39:48;11.70;99.90
3466;DHT22;1747;48.884;9.160;2022-12-24T09:42:24;11.60;99.90
3466;DHT22;1747;48.884;9.160;2022-12-24T09:44:59;11.70;99.90
3466;DHT22;1747;48.884;9.160;2022-12-24T09:47:34;11.80;99.90
3466;DHT22;1747;48.884;9.160;2022-12-24T09:50:08;11.80;99.90
3466;DHT22;1747;48.884;9.160;2022-12-24T09:52:44;11.90;99.90
3466;DHT22;1747;48.884;9.160;2022-12-24T09:55:19;12.00;99.90
3466;DHT22;1747;48.884;9.160;2022-12-24T09:57:48;12.20;99.90
3466;DHT22;1747;48.884;9.160;2022-12-24T10:00:20;12.50;99.90
3466;DHT22;1747;48.884;9.160;2022-12-24T10:02:49;12.80;99.90
3466;DHT22;1747;48.884;9.160;2022-12-24T10:05:17;13.00;99.90
3466;DHT22;1747;48.884;9.160;2022-12-24T10:07:53;13.30;99.90
3466;DHT22;1747;48.884;9.160;2022-12-24T10:10:30;13.30;99.90
3466;DHT22;1747;48.884;9.160;2022-12-24T10:13:06;13.40;99.90
3466;DHT22;1747;48.884;9.160;2022-12-24T10:15:39;13.50;99.90
3466;DHT22;1747;48.884;9.160;2022-12-24T10:18:18;13.50;99.90
3466;DHT22;1747;48.884;9.160;2022-12-24T10:21:04;13.50;99.90
3466;DHT22;1747;48.884;9.160;2022-12-24T10:23:33;13.60;99.90
3466;DHT22;1747;48.884;9.160;2022-12-24T10:26:11;13.70;99.90
3466;DHT22;1747;48.884;9.160;2022-12-24T10:28:44;13.60;99.90
3466;DHT22;1747;48.884;9.160;2022-12-24T10:31:13;13.60;99.90
3466;DHT22;1747;48.884;9.160;2022-12-24T10:33:44;13.60;99.90
3466;DHT22;1747;48.884;9.160;2022-12-24T10:36:15;13.70;99.90
3466;DHT22;1747;48.884;9.160;2022-12-24T10:38:44;13.70;99.90
3466;DHT22;1747;48.884;9.160;2022-12-24T10:41:12;13.70;99.90
3466;DHT22;1747;48.884;9.160;2022-12-24T10:43:40;13.60;99.90
3466;DHT22;1747;48.884;9.160;2022-12-24T10:46:15;13.60;99.90
3466;DHT22;1747;48.884;9.160;2022-12-24T10:48:48;13.40;99.90
3466;DHT22;1747;48.884;9.160;2022-12-24T10:51:20;13.40;99.90
3466;DHT22;1747;48.884;9.160;2022-12-24T10:53:51;13.30;99.90
3466;DHT22;1747;48.884;9.160;2022-12-24T10:56:20;13.20;99.90
3466;DHT22;1747;48.884;9.160;2022-12-24T10:58:51;13.10;99.90
3466;DHT22;1747;48.884;9.160;2022-12-24T11:01:19;13.10;99.90
3466;DHT22;1747;48.884;9.160;2022-12-24T11:04:00;13.00;99.90
3466;DHT22;1747;48.884;9.160;2022-12-24T11:06:28;12.90;99.90
3466;DHT22;1747;48.884;9.160;2022-12-24T11:09:16;12.80;99.90
3466;DHT22;1747;48.884;9.160;2022-12-24T11:11:45;12.80;99.90
3466;DHT22;1747;48.884;9.160;2022-12-24T11:14:15;12.70;99.90
3466;DHT22;1747;48.884;9.160;2022-12-24T11:16:48;12.80;99.90
3466;DHT22;1747;48.884;9.160;2022-12-24T11:19:19;12.90;99.90
3466;DHT22;1747;48.884;9.160;2022-12-24T11:21:58;12.90;99.90
3466;DHT22;1747;48.884;9.160;2022-12-24T11:24:28;13.00;99.90
3466;DHT22;1747;48.884;9.160;2022-12-24T11:27:27;13.00;99.90
3466;DHT22;1747;48.884;9.160;2022-12-24T11:30:25;13.00;99.90
3466;DHT22;1747;48.884;9.160;2022-12-24T11:33:17;13.20;99.90
3466;DHT22;1747;48.884;9.160;2022-12-24T11:35:47;13.20;99.90
3466;DHT22;1747;48.884;9.160;2022-12-24T11:38:19;13.10;99.90
3466;DHT22;1747;48.884;9.160;2022-12-24T11:40:48;13.00;99.90
3466;DHT22;1747;48.884;9.160;2022-12-24T11:43:18;13.00;99.90
3466;DHT22;1747;48.884;9.160;2022-12-24T11:45:50;12.80;99.90
3466;DHT22;1747;48.884;9.160;2022-12-24T11:48:26;12.80;99.90
3466;DHT22;1747;48.884;9.160;2022-12-24T11:50:57;12.70;99.90
3466;DHT22;1747;48.884;9.160;2022-12-24T11:53:30;12.70;99.90
3466;DHT22;1747;48.884;9.160;2022-12-24T18:03:56;10.50;99.90
3466;DHT22;1747;48.884;9.160;2022-12-24T18:06:24;10.50;99.90
3466;DHT22;1747;48.884;9.160;2022-12-24T18:08:51;10.50;99.90
3466;DHT22;1747;48.884;9.160;2022-12-24T18:11:20;10.50;99.90
3466;DHT22;1747;48.884;9.160;2022-12-24T18:13:48;10.50;99.90
3466;DHT22;1747;48.884;9.160;2022-12-24T18:16:16;10.40;99.90
3466;DHT22;1747;48.884;9.160;2022-12-24T18:18:43;10.40;99.90
3466;DHT22;1747;48.884;9.160;2022-12-24T18:21:11;10.40;99.90
3466;DHT22;1747;48.884;9.160;2022-12-24T18:23:41;10.40;99.90
3466;DHT22;1747;48.884;9.160;2022-12-24T18:26:08;10.40;99.90
3466;DHT22;1747;48.884;9.160;2022-12-24T18:28:35;10.40;99.90
3466;DHT22;1747;48.884;9.160;2022-12-24T18:31:04;10.40;99.90
3466;DHT22;1747;48.884;9.160;2022-12-24T18:33:31;10.40;99.90
3466;DHT22;1747;48.884;9.160;2022-12-24T18:35:59;10.40;99.90
3466;DHT22;1747;48.884;9.160;2022-12-24T18:38:27;10.40;99.90
3466;DHT22;1747;48.884;9.160;2022-12-24T18:40:54;10.40;99.90
3466;DHT22;1747;48.884;9.160;2022-12-24T18:43:21;10.40;99.90
3466;DHT22;1747;48.884;9.160;2022-12-24T18:45:48;10.30;99.90
3466;DHT22;1747;48.884;9.160;2022-12-24T18:48:14;10.30;99.90
3466;DHT22;1747;48.884;9.160;2022-12-24T18:50:41;10.30;99.90
3466;DHT22;1747;48.884;9.160;2022-12-24T18:53:08;10.20;99.90
3466;DHT22;1747;48.884;9.160;2022-12-24T18:55:38;10.20;99.90
3466;DHT22;1747;48.884;9.160;2022-12-24T18:58:05;10.20;99.90
3466;DHT22;1747;48.884;9.160;2022-12-24T19:00:47;10.30;99.90
3466;DHT22;1747;48.884;9.160;2022-12-24T19:03:14;10.40;99.90
3466;DHT22;1747;48.884;9.160;2022-12-24T19:05:41;10.40;99.90
3466;DHT22;1747;48.884;9.160;2022-12-24T19:08:07;10.40;99.90
3466;DHT22;1747;48.884;9.160;2022-12-24T19:10:36;10.40;99.90
3466;DHT22;1747;48.884;9.160;2022-12-24T19:13:04;10.40;99.90
3466;DHT22;1747;48.884;9.160;2022-12-24T19:15:31;10.50;99.90
3466;DHT22;1747;48.884;9.160;2022-12-24T19:17:58;10.50;99.90
3466;DHT22;1747;48.884;9.160;2022-12-24T19:20:24;10.50;99.90
3466;DHT22;1747;48.884;9.160;2022-12-24T19:22:51;10.50;99.90
3466;DHT22;1747;48.884;9.160;2022-12-24T19:25:18;10.50;99.90
3466;DHT22;1747;48.884;9.160;2022-12-24T19:27:45;10.50;99.90
3466;DHT22;1747;48.884;9.160;2022-12-24T19:30:13;10.50;99.90
3466;DHT22;1747;48.884;9.160;2022-12-24T19:32:40;10.40;99.90
3466;DHT22;1747;48.884;9.160;2022-12-24T19:35:08;10.40;99.90
3466;DHT22;1747;48.884;9.160;2022-12-24T19:37:34;10.40;99.90
3466;DHT22;1747;48.884;9.160;2022-12-24T19:40:01;10.40;99.90
3466;DHT22;1747;48.884;9.160;2022-12-24T19:42:29;10.40;99.90
3466;DHT22;1747;48.884;9.160;2022-12-24T19:44:55;10.40;99.90
3466;DHT22;1747;48.884;9.160;2022-12-24T19:47:24;10.40;99.90
3466;DHT22;1747;48.884;9.160;2022-12-24T19:49:50;10.40;99.90
3466;DHT22;1747;48.884;9.160;2022-12-24T19:52:17;10.40;99.90
3466;DHT22;1747;48.884;9.160;2022-12-24T19:54:45;10.50;99.90
3466;DHT22;1747;48.884;9.160;2022-12-24T19:57:12;10.50;99.90
3466;DHT22;1747;48.884;9.160;2022-12-24T19:59:38;10.50;99.90
3466;DHT22;1747;48.884;9.160;2022-12-24T20:02:07;10.60;99.90
3466;DHT22;1747;48.884;9.160;2022-12-24T20:04:36;10.70;99.90
3466;DHT22;1747;48.884;9.160;2022-12-24T20:07:03;10.90;99.90
3466;DHT22;1747;48.884;9.160;2022-12-24T20:09:29;10.90;99.90
3466;DHT22;1747;48.884;9.160;2022-12-24T20:11:58;11.00;99.90
3466;DHT22;1747;48.884;9.160;2022-12-24T20:14:25;11.10;99.90
3466;DHT22;1747;48.884;9.160;2022-12-24T20:16:52;11.10;99.90
3466;DHT22;1747;48.884;9.160;2022-12-24T20:19:19;11.10;99.90
3466;DHT22;1747;48.884;9.160;2022-12-24T20:21:47;11.20;99.90
3466;DHT22;1747;48.884;9.160;2022-12-24T20:24:15;11.30;99.90
3466;DHT22;1747;48.884;9.160;2022-12-24T20:26:42;11.50;99.90
3466;DHT22;1747;48.884;9.160;2022-12-24T20:29:10;11.50;99.90
3466;DHT22;1747;48.884;9.160;2022-12-24T20:31:38;11.40;99.90
3466;DHT22;1747;48.884;9.160;2022-12-24T20:34:05;11.30;99.90
3466;DHT22;1747;48.884;9.160;2022-12-24T20:36:34;11.30;99.90
3466;DHT22;1747;48.884;9.160;2022-12-24T20:39:03;11.30;99.90
3466;DHT22;1747;48.884;9.160;2022-12-24T20:41:32;11.30;99.90
3466;DHT22;1747;48.884;9.160;2022-12-24T20:43:59;11.30;99.90
3466;DHT22;1747;48.884;9.160;2022-12-24T20:46:27;11.30;99.90
3466;DHT22;1747;48.884;9.160;2022-12-24T20:48:55;11.40;99.90
3466;DHT22;1747;48.884;9.160;2022-12-24T20:51:24;11.40;99.90
3466;DHT22;1747;48.884;9.160;2022-12-24T20:53:52;11.40;99.90
3466;DHT22;1747;48.884;9.160;2022-12-24T20:56:21;11.40;99.90
3466;DHT22;1747;48.884;9.160;2022-12-24T20:58:50;11.40;99.90
3466;DHT22;1747;48.884;9.160;2022-12-24T21:01:20;11.40;99.90
3466;DHT22;1747;48.884;9.160;2022-12-24T21:03:49;11.40;99.90
3466;DHT22;1747;48.884;9.160;2022-12-24T21:06:17;11.30;99.90
3466;DHT22;1747;48.884;9.160;2022-12-24T21:08:48;11.30;99.90
3466;DHT22;1747;48.884;9.160;2022-12-24T21:11:16;11.20;99.90
3466;DHT22;1747;48.884;9.160;2022-12-24T21:14:02;11.20;99.90
3466;DHT22;1747;48.884;9.160;2022-12-24T21:16:29;11.20;99.90
3466;DHT22;1747;48.884;9.160;2022-12-24T21:18:56;11.30;99.90
3466;DHT22;1747;48.884;9.160;2022-12-24T21:21:23;11.30;99.90
3466;DHT22;1747;48.884;9.160;2022-12-24T21:23:50;11.30;99.90
3466;DHT22;1747;48.884;9.160;2022-12-24T21:26:17;11.30;99.90
3466;DHT22;1747;48.884;9.160;2022-12-24T21:28:44;11.30;99.90
3466;DHT22;1747;48.884;9.160;2022-12-24T21:31:13;11.30;99.90
3466;DHT22;1747;48.884;9.160;2022-12-24T21:33:40;11.30;99.90
3466;DHT22;1747;48.884;9.160;2022-12-24T21:36:08;11.30;99.90
3466;DHT22;1747;48.884;9.160;2022-12-24T21:38:35;11.40;99.90
3466;DHT22;1747;48.884;9.160;2022-12-24T21:41:04;11.40;99.90
3466;DHT22;1747;48.884;9.160;2022-12-24T21:43:32;11.50;99.90
3466;DHT22;1747;48.884;9.160;2022-12-24T21:46:01;11.50;99.90
3466;DHT22;1747;48.884;9.160;2022-12-24T21:48:32;11.40;99.90
3466;DHT22;1747;48.884;9.160;2022-12-24T21:51:16;11.40;99.90
3466;DHT22;1747;48.884;9.160;2022-12-24T21:53:43;11.30;99.90
3466;DHT22;1747;48.884;9.160;2022-12-24T21:56:27;11.40;99.90
3466;DHT22;1747;48.884;9.160;2022-12-24T21:58:54;11.50;99.90
3466;DHT22;1747;48.884;9.160;2022-12-24T22:01:20;11.50;99.90
3466;DHT22;1747;48.884;9.160;2022-12-24T22:03:49;11.50;99.90
3466;DHT22;1747;48.884;9.160;2022-12-24T22:06:17;11.40;99.90
3466;DHT22;1747;48.884;9.160;2022-12-24T22:08:57;11.30;99.90
3466;DHT22;1747;48.884;9.160;2022-12-24T22:11:41;11.20;99.90
3466;DHT22;1747;48.884;9.160;2022-12-24T22:14:14;11.10;99.90
3466;DHT22;1747;48.884;9.160;2022-12-24T22:16:41;11.10;99.90
3466;DHT22;1747;48.884;9.160;2022-12-24T22:19:09;11.00;99.90
3466;DHT22;1747;48.884;9.160;2022-12-24T22:21:36;10.90;99.90
3466;DHT22;1747;48.884;9.160;2022-12-24T22:24:04;10.80;99.90
3466;DHT22;1747;48.884;9.160;2022-12-24T22:26:31;10.70;99.90